Time;durP1;ratioP1;P1;durP2;ratioP2;P2;SDS_P1;SDS_P2;PMS_P1;PMS_P2;Temp;Humidity;BMP_temperature;BMP_pressure;BME280_temperature;BME280_humidity;BME280_pressure;Samples;Min_cycle;Max_cycle;Signal;HPM_P1;HPM_P2
2022/08/08 00:01:35;;;;;;;2.10;0.80;;;22.20;56.00;;;;;;4966184;28;20118;-90
2022/08/08 00:04:40;;;;;;;1.55;0.80;;;22.10;56.40;;;;;;4953523;28;20023;-88
2022/08/08 00:07:18;;;;;;;;;;;22.00;56.30;;;;;;4891957;29;20127;-89
2022/08/08 00:10:03;;;;;;;4.38;0.90;;;21.90;56.40;;;;;;4962818;28;19914;-89
2022/08/08 00:12:33;;;;;;;2.58;1.10;;;21.90;56.80;;;;;;4970592;28;20101;-90
2022/08/08 00:15:16;;;;;;;6.55;1.15;;;21.90;56.90;;;;;;4951763;28;20022;-90
2022/08/08 00:18:02;;;;;;;3.20;0.90;;;21.80;56.50;;;;;;4967877;28;20029;-89
2022/08/08 00:20:49;;;;;;;3.30;0.80;;;21.80;56.90;;;;;;4956762;28;20507;-89
2022/08/08 00:23:23;;;;;;;3.63;0.95;;;21.70;57.00;;;;;;4966964;28;20041;-90
2022/08/08 00:25:54;;;;;;;3.83;1.13;;;21.70;57.20;;;;;;4950813;28;20130;-89
2022/08/08 00:28:26;;;;;;;2.15;0.95;;;21.70;57.40;;;;;;4970159;28;20483;-89
2022/08/08 00:30:55;;;;;;;1.60;0.82;;;21.70;57.50;;;;;;4953674;28;20034;-89
2022/08/08 00:33:27;;;;;;;1.33;0.73;;;21.60;57.70;;;;;;4974168;28;20023;-90
2022/08/08 00:36:01;;;;;;;2.38;0.90;;;21.60;57.50;;;;;;4972416;28;20108;-88
2022/08/08 00:39:12;;;;;;;2.45;0.90;;;21.60;57.40;;;;;;4973942;28;20114;-88
2022/08/08 00:42:02;;;;;;;1.65;0.80;;;21.60;57.90;;;;;;4968672;28;20100;-89
2022/08/08 00:44:58;;;;;;;3.25;0.90;;;21.50;58.10;;;;;;4973543;28;20023;-89
2022/08/08 00:47:42;;;;;;;2.75;0.90;;;21.50;58.00;;;;;;4947899;28;20089;-89
2022/08/08 00:50:45;;;;;;;2.70;0.95;;;21.50;58.00;;;;;;4960268;28;20058;-89
2022/08/08 00:53:30;;;;;;;1.20;0.80;;;21.40;58.10;;;;;;4969546;28;20526;-90
2022/08/08 00:56:10;;;;;;;2.40;0.90;;;21.40;58.40;;;;;;4973377;28;20026;-89
2022/08/08 00:59:00;;;;;;;2.85;1.17;;;21.40;58.40;;;;;;4973416;28;20023;-91
2022/08/08 01:01:32;;;;;;;1.25;0.82;;;21.40;58.50;;;;;;4973140;28;20499;-88
2022/08/08 01:04:15;;;;;;;1.83;0.85;;;21.40;58.70;;;;;;4973199;28;20025;-88
2022/08/08 01:07:06;;;;;;;1.80;0.93;;;21.40;58.70;;;;;;4971689;28;20027;-89
2022/08/08 01:10:00;;;;;;;4.63;1.30;;;21.30;58.60;;;;;;4961048;28;20428;-89
2022/08/08 01:12:50;;;;;;;3.83;1.10;;;21.30;58.90;;;;;;4957974;28;20038;-89
2022/08/08 01:15:31;;;;;;;1.63;1.08;;;21.30;59.30;;;;;;4968882;28;20066;-89
2022/08/08 01:18:11;;;;;;;5.05;0.80;;;21.30;59.20;;;;;;4972958;28;20071;-88
2022/08/08 01:21:13;;;;;;;3.65;1.20;;;21.30;59.20;;;;;;4971605;28;20483;-92
2022/08/08 01:23:58;;;;;;;1.85;0.90;;;21.30;59.30;;;;;;4968784;28;20081;-88
2022/08/08 01:26:42;;;;;;;4.07;0.95;;;21.30;59.20;;;;;;4971557;28;20032;-90
2022/08/08 01:29:28;;;;;;;3.25;0.73;;;21.20;59.20;;;;;;4972653;28;20064;-90
2022/08/08 01:32:39;;;;;;;1.73;0.80;;;21.20;60.00;;;;;;4971286;28;20054;-92
2022/08/08 01:35:28;;;;;;;1.70;0.82;;;21.10;59.60;;;;;;4953342;28;20576;-89
2022/08/08 01:38:12;;;;;;;2.65;1.30;;;21.00;59.90;;;;;;4972384;28;20039;-90
2022/08/08 01:40:38;;;;;;;2.33;0.80;;;21.00;60.50;;;;;;4972588;28;20054;-89
2022/08/08 01:43:26;;;;;;;1.35;0.80;;;20.90;60.20;;;;;;4971586;28;20040;-88
2022/08/08 01:46:07;;;;;;;2.65;0.85;;;20.90;60.60;;;;;;4972310;28;20027;-89
2022/08/08 01:49:24;;;;;;;1.13;0.70;;;20.80;60.80;;;;;;4971116;28;20526;-89
2022/08/08 01:52:07;;;;;;;2.88;0.80;;;20.80;60.80;;;;;;4873733;29;20028;-88
2022/08/08 01:54:49;;;;;;;4.07;1.00;;;20.80;61.10;;;;;;4874670;29;20029;-91
2022/08/08 01:57:31;;;;;;;2.08;0.80;;;20.70;61.40;;;;;;4928039;28;20511;-88
2022/08/08 02:00:06;;;;;;;3.92;1.00;;;20.70;61.30;;;;;;4954795;28;20031;-91
2022/08/08 02:03:06;;;;;;;1.10;0.70;;;20.60;61.70;;;;;;4972233;28;20022;-89
2022/08/08 02:06:17;;;;;;;2.30;0.90;;;20.60;61.70;;;;;;4972258;28;20561;-92
2022/08/08 02:08:48;;;;;;;1.13;0.82;;;20.70;61.40;;;;;;4971759;28;20031;-91
2022/08/08 02:11:30;;;;;;;3.72;1.15;;;20.60;61.60;;;;;;4970729;28;20085;-88
2022/08/08 02:14:31;;;;;;;1.88;0.80;;;20.60;62.20;;;;;;4971917;28;20126;-89
2022/08/08 02:17:13;;;;;;;3.47;0.90;;;20.60;62.10;;;;;;4971806;28;20022;-89
2022/08/08 02:19:45;;;;;;;1.27;0.70;;;20.60;62.20;;;;;;4954666;28;20030;-88
2022/08/08 02:22:30;;;;;;;1.33;0.80;;;20.60;62.60;;;;;;4971758;28;20050;-89
2022/08/08 02:25:17;;;;;;;2.05;0.80;;;20.60;62.40;;;;;;4965977;28;20026;-88
2022/08/08 02:28:02;;;;;;;2.05;1.20;;;20.50;62.40;;;;;;4971456;28;20070;-88
2022/08/08 02:30:48;;;;;;;2.05;0.70;;;20.50;62.60;;;;;;4953841;28;20058;-90
2022/08/08 02:33:59;;;;;;;3.50;0.80;;;20.60;62.70;;;;;;4966373;28;20022;-88
2022/08/08 02:36:30;;;;;;;1.40;0.80;;;20.60;62.20;;;;;;4921759;28;20503;-91
2022/08/08 02:39:25;;;;;;;2.88;0.80;;;20.60;62.40;;;;;;4970298;28;20022;-89
2022/08/08 02:42:04;;;;;;;1.60;0.80;;;20.60;62.50;;;;;;4970253;28;20037;-90
2022/08/08 02:44:29;;;;;;;2.53;0.98;;;20.60;62.50;;;;;;4971471;28;20065;-91
2022/08/08 02:47:23;;;;;;;3.58;0.90;;;20.70;62.60;;;;;;4968944;28;20050;-88
2022/08/08 02:50:07;;;;;;;2.00;0.70;;;20.80;62.60;;;;;;4971240;28;20058;-89
2022/08/08 02:52:38;;;;;;;1.73;0.80;;;20.90;62.70;;;;;;4975717;28;20065;-89
2022/08/08 02:55:51;;;;;;;2.08;0.80;;;20.90;62.60;;;;;;4976392;28;20106;-89
2022/08/08 02:58:53;;;;;;;2.42;1.00;;;20.80;62.40;;;;;;4913536;28;20039;-89
2022/08/08 03:01:40;;;;;;;1.30;0.60;;;20.80;62.90;;;;;;4966934;28;20050;-89
2022/08/08 03:04:28;;;;;;;2.50;1.23;;;20.80;62.70;;;;;;4969802;28;20031;-92
2022/08/08 03:07:15;;;;;;;3.05;1.02;;;20.80;62.90;;;;;;4969683;28;20109;-90
2022/08/08 03:10:18;;;;;;;1.92;0.80;;;20.80;63.10;;;;;;4969506;28;20042;-89
2022/08/08 03:13:09;;;;;;;3.08;0.90;;;20.80;63.60;;;;;;4965804;28;20105;-91
2022/08/08 03:16:05;;;;;;;2.03;1.10;;;20.80;63.90;;;;;;4970724;28;20026;-88
2022/08/08 03:18:50;;;;;;;1.75;0.77;;;20.80;63.30;;;;;;4953024;28;20553;-89
2022/08/08 03:21:16;;;;;;;1.50;0.65;;;20.80;63.20;;;;;;4953817;28;20035;-89
2022/08/08 03:23:41;;;;;;;3.30;1.30;;;20.70;63.30;;;;;;4971301;28;20058;-90
2022/08/08 03:26:07;;;;;;;2.00;1.05;;;20.80;63.30;;;;;;4971150;28;20030;-90
2022/08/08 03:28:54;;;;;;;1.75;0.95;;;20.80;63.80;;;;;;4969383;28;20031;-93
2022/08/08 03:34:09;;;;;;;3.00;1.17;;;20.70;63.90;;;;;;4970901;28;20046;-89
2022/08/08 03:36:42;;;;;;;3.88;1.00;;;20.80;64.10;;;;;;4953671;28;20058;-92
2022/08/08 03:39:10;;;;;;;2.08;1.02;;;20.70;63.90;;;;;;4953392;28;20078;-93
2022/08/08 03:41:36;;;;;;;1.40;0.80;;;20.80;63.90;;;;;;4953519;28;20215;-93
2022/08/08 03:44:02;;;;;;;2.67;0.80;;;20.70;64.40;;;;;;4953259;28;20664;-88
2022/08/08 03:46:27;;;;;;;3.75;0.82;;;20.70;64.10;;;;;;4970545;28;20097;-90
2022/08/08 03:48:58;;;;;;;1.90;0.73;;;20.70;64.40;;;;;;4970408;28;20062;-87
2022/08/08 03:51:24;;;;;;;2.53;0.70;;;20.70;64.20;;;;;;4970354;28;20043;-88
2022/08/08 03:53:53;;;;;;;2.95;1.10;;;20.60;64.60;;;;;;4953232;28;20038;-88
2022/08/08 03:56:21;;;;;;;1.38;0.95;;;20.60;64.50;;;;;;4953501;28;20574;-88
2022/08/08 03:58:51;;;;;;;1.23;0.88;;;20.50;64.90;;;;;;4970820;28;20121;-88
2022/08/08 04:01:18;;;;;;;1.92;0.95;;;20.60;64.80;;;;;;4970791;28;20031;-88
2022/08/08 04:03:46;;;;;;;2.75;1.08;;;20.50;64.90;;;;;;4965912;28;20579;-88
2022/08/08 04:06:13;;;;;;;3.50;1.15;;;20.50;64.90;;;;;;4972987;28;20022;-88
2022/08/08 04:08:39;;;;;;;4.28;1.13;;;20.50;64.80;;;;;;4973834;28;20039;-88
2022/08/08 04:11:06;;;;;;;2.47;0.95;;;20.60;65.20;;;;;;4956563;28;20510;-88
2022/08/08 04:13:31;;;;;;;3.38;0.93;;;20.60;64.90;;;;;;4973858;28;20189;-88
2022/08/08 04:15:57;;;;;;;2.45;0.80;;;20.60;65.10;;;;;;4974050;28;20531;-89
2022/08/08 04:18:23;;;;;;;2.17;0.93;;;20.50;64.60;;;;;;4973909;28;20377;-88
2022/08/08 04:20:49;;;;;;;2.88;0.95;;;20.50;65.30;;;;;;4967825;28;20166;-88
2022/08/08 04:23:15;;;;;;;1.70;0.77;;;20.50;65.40;;;;;;4950530;28;20039;-88
2022/08/08 04:25:40;;;;;;;1.45;0.82;;;20.50;65.60;;;;;;4965192;28;20026;-88
2022/08/08 04:28:07;;;;;;;5.07;0.90;;;20.50;65.50;;;;;;4961470;28;20043;-88
2022/08/08 04:30:33;;;;;;;1.98;0.90;;;20.50;65.40;;;;;;4973572;28;20102;-92
2022/08/08 04:32:58;;;;;;;3.33;1.02;;;20.50;65.80;;;;;;4973707;28;20117;-88
2022/08/08 04:35:24;;;;;;;1.95;0.90;;;20.50;66.10;;;;;;4974439;28;20137;-89
2022/08/08 04:37:51;;;;;;;2.05;0.70;;;20.40;65.90;;;;;;4976077;28;20038;-88
2022/08/08 04:40:17;;;;;;;3.40;1.90;;;20.40;66.20;;;;;;4974774;28;20475;-89
2022/08/08 04:42:43;;;;;;;2.72;0.98;;;20.40;66.20;;;;;;4973539;28;20062;-89
2022/08/08 04:45:09;;;;;;;2.63;0.90;;;20.30;66.30;;;;;;4973847;28;20027;-88
2022/08/08 04:47:35;;;;;;;3.33;1.02;;;20.30;66.70;;;;;;4973322;28;20178;-88
2022/08/08 04:50:00;;;;;;;4.72;1.10;;;20.30;66.80;;;;;;4973812;28;20037;-94
2022/08/08 04:52:26;;;;;;;2.72;0.80;;;20.20;66.60;;;;;;4973764;28;20110;-89
2022/08/08 04:54:52;;;;;;;2.95;1.17;;;20.20;66.90;;;;;;4956154;28;20042;-88
2022/08/08 04:57:17;;;;;;;1.95;0.90;;;20.20;67.10;;;;;;4973411;28;20034;-89
2022/08/08 04:59:43;;;;;;;1.92;1.10;;;20.20;66.90;;;;;;4955717;28;20027;-91
2022/08/08 05:02:09;;;;;;;3.53;1.10;;;20.20;67.20;;;;;;4956022;28;20065;-88
2022/08/08 05:04:35;;;;;;;4.25;1.10;;;20.20;67.30;;;;;;4973445;28;20034;-88
2022/08/08 05:07:02;;;;;;;8.55;1.30;;;20.20;67.20;;;;;;4973261;28;20022;-89
2022/08/08 05:09:27;;;;;;;8.85;1.20;;;20.20;66.90;;;;;;4973114;28;20027;-88
2022/08/08 05:11:54;;;;;;;4.30;1.23;;;20.10;67.00;;;;;;4973238;28;20026;-88
2022/08/08 05:14:19;;;;;;;7.32;1.42;;;20.10;67.50;;;;;;4971692;28;20030;-88
2022/08/08 05:16:45;;;;;;;5.63;1.17;;;20.10;67.60;;;;;;4955510;28;20026;-88
2022/08/08 05:19:11;;;;;;;8.77;1.40;;;20.20;68.00;;;;;;4973553;28;20030;-88
2022/08/08 05:21:43;;;;;;;15.70;1.85;;;20.20;68.20;;;;;;4973061;28;20101;-88
2022/08/08 05:24:10;;;;;;;22.75;2.10;;;20.20;68.00;;;;;;4973308;28;20027;-88
2022/08/08 05:26:37;;;;;;;26.52;3.25;;;20.20;68.30;;;;;;4966856;28;20027;-88
2022/08/08 05:29:07;;;;;;;19.42;2.47;;;20.10;68.30;;;;;;4955272;28;20409;-88
2022/08/08 05:31:34;;;;;;;11.25;1.75;;;20.20;68.30;;;;;;4958709;28;20475;-88
2022/08/08 05:34:01;;;;;;;18.10;1.85;;;20.20;68.10;;;;;;4969510;28;20027;-89
2022/08/08 05:36:29;;;;;;;15.48;1.98;;;20.10;68.60;;;;;;4972562;28;20019;-88
2022/08/08 05:38:57;;;;;;;10.93;1.30;;;20.10;68.80;;;;;;4972647;28;20050;-89
2022/08/08 05:41:24;;;;;;;8.23;1.40;;;20.10;68.90;;;;;;4955498;28;20043;-92
2022/08/08 05:43:59;;;;;;;5.57;1.30;;;20.20;68.70;;;;;;4972539;28;20529;-90
2022/08/08 05:46:25;;;;;;;7.63;1.30;;;20.20;68.60;;;;;;4965878;28;20089;-88
2022/08/08 05:48:53;;;;;;;1.50;1.13;;;20.20;68.50;;;;;;4972945;28;20042;-88
2022/08/08 05:51:20;;;;;;;4.85;1.30;;;20.20;68.90;;;;;;4972327;28;20078;-89
2022/08/08 05:53:46;;;;;;;3.70;1.33;;;20.20;68.70;;;;;;4972637;28;20428;-88
2022/08/08 05:56:15;;;;;;;5.55;1.77;;;20.20;69.30;;;;;;4972243;28;20026;-92
2022/08/08 05:58:42;;;;;;;4.75;1.35;;;20.20;69.30;;;;;;4972254;28;20058;-89
2022/08/08 06:01:10;;;;;;;3.47;1.02;;;20.30;68.90;;;;;;4964825;28;20055;-88
2022/08/08 06:03:42;;;;;;;5.03;1.40;;;20.30;68.40;;;;;;4972197;28;20031;-89
2022/08/08 06:06:08;;;;;;;4.60;1.40;;;20.40;69.10;;;;;;4966662;28;20035;-89
2022/08/08 06:08:43;;;;;;;5.60;1.00;;;20.40;68.90;;;;;;4955075;28;20035;-90
2022/08/08 06:11:08;;;;;;;;;;;20.50;69.50;;;;;;4972581;28;20031;-89
2022/08/08 06:13:34;;;;;;;4.32;1.60;;;20.50;69.10;;;;;;4971898;28;19921;-88
2022/08/08 06:16:00;;;;;;;6.72;1.35;;;20.50;68.90;;;;;;4971782;28;20511;-88
2022/08/08 06:18:28;;;;;;;2.88;1.20;;;20.50;69.10;;;;;;4971976;28;20570;-88
2022/08/08 06:20:56;;;;;;;4.85;1.10;;;20.50;69.10;;;;;;4965887;28;20023;-88
2022/08/08 06:23:23;;;;;;;5.15;1.45;;;20.60;69.10;;;;;;4971960;28;20397;-89
2022/08/08 06:26:01;;;;;;;2.95;1.13;;;20.70;69.20;;;;;;4970395;28;20089;-89
2022/08/08 06:28:35;;;;;;;4.55;1.10;;;20.70;69.20;;;;;;4954000;28;20409;-90
2022/08/08 06:31:03;;;;;;;4.05;1.25;;;20.90;68.90;;;;;;4970501;28;20025;-88
2022/08/08 06:33:54;;;;;;;6.90;1.30;;;20.90;68.80;;;;;;4970709;28;20418;-88
2022/08/08 06:36:36;;;;;;;5.75;1.00;;;20.90;68.70;;;;;;4970083;28;20031;-88
2022/08/08 06:39:05;;;;;;;3.70;1.10;;;21.00;69.30;;;;;;4955501;28;20426;-87
2022/08/08 06:41:35;;;;;;;2.05;1.02;;;21.00;68.50;;;;;;4971485;28;20114;-88
2022/08/08 06:44:02;;;;;;;2.85;1.10;;;21.10;68.70;;;;;;4971395;28;20487;-88
2022/08/08 06:46:29;;;;;;;3.80;1.55;;;21.20;68.30;;;;;;4971366;28;20027;-88
2022/08/08 06:48:55;;;;;;;6.90;1.35;;;21.30;68.50;;;;;;4971578;28;20039;-88
2022/08/08 06:51:21;;;;;;;3.88;1.08;;;21.40;67.90;;;;;;4971254;28;20023;-95
2022/08/08 06:53:47;;;;;;;4.38;1.30;;;21.50;68.30;;;;;;4971371;28;20698;-89
2022/08/08 06:56:13;;;;;;;1.50;1.00;;;21.50;67.90;;;;;;4965741;28;20323;-88
2022/08/08 06:58:39;;;;;;;4.00;1.35;;;21.60;67.40;;;;;;4970861;28;20062;-88
2022/08/08 07:01:07;;;;;;;3.28;1.00;;;21.60;67.70;;;;;;4971018;28;20027;-90
2022/08/08 07:03:54;;;;;;;7.68;1.67;;;21.70;67.20;;;;;;4971052;28;20027;-88
2022/08/08 07:06:24;;;;;;;2.42;1.13;;;21.70;66.60;;;;;;4967240;28;20035;-89
2022/08/08 07:08:55;;;;;;;2.92;1.05;;;21.80;66.40;;;;;;4967430;28;20026;-89
2022/08/08 07:11:27;;;;;;;2.67;0.80;;;21.90;66.20;;;;;;4971264;28;20023;-92
2022/08/08 07:13:58;;;;;;;2.80;1.00;;;21.90;66.70;;;;;;4953457;28;20026;-89
2022/08/08 07:16:38;;;;;;;3.65;1.10;;;22.00;66.80;;;;;;4971121;28;20050;-88
2022/08/08 07:19:17;;;;;;;3.83;1.17;;;22.10;65.90;;;;;;4971007;28;20027;-92
2022/08/08 07:22:01;;;;;;;2.50;1.17;;;22.20;66.20;;;;;;4935405;28;20054;-91
2022/08/08 07:24:34;;;;;;;1.83;1.00;;;22.20;65.50;;;;;;4967445;28;20034;-94
2022/08/08 07:27:01;;;;;;;2.97;1.30;;;22.20;65.50;;;;;;4954070;28;20090;-92
2022/08/08 07:29:30;;;;;;;4.22;1.23;;;22.30;65.80;;;;;;4969692;28;20537;-86
2022/08/08 07:31:56;;;;;;;2.70;0.98;;;22.40;65.50;;;;;;4970761;28;20399;-87
2022/08/08 07:34:23;;;;;;;4.65;1.17;;;22.60;65.30;;;;;;4970733;28;20503;-89
2022/08/08 07:36:50;;;;;;;2.38;1.13;;;22.60;65.50;;;;;;4970888;28;20022;-86
2022/08/08 07:39:21;;;;;;;5.68;1.10;;;22.70;65.20;;;;;;4970459;28;20475;-87
2022/08/08 07:41:48;;;;;;;4.30;1.10;;;22.80;65.40;;;;;;4973696;28;20022;-87
2022/08/08 07:44:16;;;;;;;3.97;1.30;;;22.90;65.00;;;;;;4974804;28;20029;-87
2022/08/08 07:46:41;;;;;;;3.42;1.15;;;23.00;64.60;;;;;;4974455;28;20023;-87
2022/08/08 07:49:07;;;;;;;2.58;1.10;;;23.00;64.30;;;;;;4974726;28;20122;-88
2022/08/08 07:51:34;;;;;;;2.80;0.95;;;23.10;64.20;;;;;;4974703;28;20019;-88
2022/08/08 07:54:36;;;;;;;2.63;1.00;;;23.20;64.30;;;;;;4974696;28;20089;-89
2022/08/08 07:57:35;;;;;;;4.32;1.10;;;23.30;64.20;;;;;;4957783;28;20030;-87
2022/08/08 08:00:04;;;;;;;3.35;1.02;;;23.30;63.70;;;;;;4974191;28;20030;-88
2022/08/08 08:02:46;;;;;;;3.22;0.90;;;23.50;63.80;;;;;;4974320;28;20023;-86
2022/08/08 08:05:20;;;;;;;2.72;0.90;;;23.50;63.60;;;;;;4974259;28;20096;-84
2022/08/08 08:07:48;;;;;;;3.45;1.40;;;23.60;63.70;;;;;;4955905;28;20446;-84
2022/08/08 08:10:18;;;;;;;5.00;1.10;;;23.80;63.80;;;;;;4971983;28;20030;-84
2022/08/08 08:12:55;;;;;;;2.67;1.27;;;23.90;63.40;;;;;;4968264;28;20027;-85
2022/08/08 08:15:25;;;;;;;5.50;1.10;;;24.00;63.40;;;;;;4973998;28;20373;-85
2022/08/08 08:17:56;;;;;;;2.83;1.10;;;24.10;63.10;;;;;;4974010;28;20498;-84
2022/08/08 08:20:26;;;;;;;4.20;1.20;;;24.30;62.50;;;;;;4973737;28;20019;-85
2022/08/08 08:22:52;;;;;;;2.17;1.10;;;24.40;62.20;;;;;;4973970;28;20026;-85
2022/08/08 08:25:17;;;;;;;2.38;1.05;;;24.50;62.40;;;;;;4974086;28;20382;-84
2022/08/08 08:27:43;;;;;;;1.90;0.82;;;24.70;62.10;;;;;;4973833;28;20089;-85
2022/08/08 08:30:09;;;;;;;4.28;1.75;;;24.80;61.50;;;;;;4973878;28;20034;-85
2022/08/08 08:32:35;;;;;;;3.13;1.02;;;24.80;60.70;;;;;;4973712;28;20029;-84
2022/08/08 08:35:02;;;;;;;3.10;1.08;;;24.90;60.60;;;;;;4973688;28;20051;-84
2022/08/08 08:37:28;;;;;;;3.17;0.98;;;25.00;61.20;;;;;;4972287;28;20034;-85
2022/08/08 08:39:53;;;;;;;3.42;1.20;;;25.20;60.10;;;;;;4973606;28;20023;-84
2022/08/08 08:42:20;;;;;;;4.63;1.00;;;25.30;61.30;;;;;;4973385;28;20376;-84
2022/08/08 08:44:46;;;;;;;6.45;0.90;;;25.40;60.30;;;;;;4973591;28;20030;-85
2022/08/08 08:47:14;;;;;;;6.13;1.27;;;25.60;60.60;;;;;;4967680;28;20019;-85
2022/08/08 08:49:39;;;;;;;3.00;1.05;;;25.80;60.20;;;;;;4973257;28;20035;-84
2022/08/08 08:52:06;;;;;;;3.00;1.05;;;26.00;58.90;;;;;;4973069;28;20057;-84
2022/08/08 08:54:34;;;;;;;3.33;1.15;;;26.10;59.10;;;;;;4973318;28;20031;-85
2022/08/08 08:57:01;;;;;;;2.65;0.70;;;26.20;58.90;;;;;;4973217;28;20499;-85
2022/08/08 08:59:30;;;;;;;2.55;1.08;;;26.30;58.80;;;;;;4973066;28;20101;-85
2022/08/08 09:01:58;;;;;;;1.88;0.70;;;26.40;58.30;;;;;;4972892;28;20117;-85
2022/08/08 09:04:26;;;;;;;5.15;1.13;;;26.60;58.60;;;;;;4971889;28;20031;-85
2022/08/08 09:06:52;;;;;;;2.03;0.90;;;26.80;57.80;;;;;;4973024;28;20273;-85
2022/08/08 09:09:24;;;;;;;1.92;1.08;;;26.90;58.20;;;;;;4973465;28;20271;-85
2022/08/08 09:11:52;;;;;;;2.53;1.17;;;27.10;57.30;;;;;;4973051;28;20109;-85
2022/08/08 09:14:22;;;;;;;4.25;1.10;;;27.20;56.90;;;;;;4955505;28;20364;-85
2022/08/08 09:16:49;;;;;;;1.90;0.95;;;27.20;56.90;;;;;;4972895;28;20027;-85
2022/08/08 09:19:16;;;;;;;6.93;1.05;;;27.40;57.60;;;;;;4972763;28;20080;-85
2022/08/08 09:21:41;;;;;;;6.03;0.98;;;27.50;56.60;;;;;;4972791;28;20035;-86
2022/08/08 09:24:08;;;;;;;1181.43;143.13;;;27.60;57.10;;;;;;4972525;28;20027;-85
2022/08/08 09:27:05;;;;;;;18.13;2.60;;;27.80;56.90;;;;;;4972760;28;20035;-87
2022/08/08 09:29:35;;;;;;;944.00;129.48;;;28.00;56.30;;;;;;4972770;28;20043;-87
2022/08/08 09:32:06;;;;;;;703.78;88.28;;;28.10;56.10;;;;;;4956264;28;20113;-87
2022/08/08 09:34:33;;;;;;;10.30;2.15;;;28.20;56.30;;;;;;4974721;28;20046;-85
2022/08/08 09:37:07;;;;;;;268.73;29.52;;;28.30;56.10;;;;;;4974824;28;20023;-89
2022/08/08 09:39:45;;;;;;;1134.88;161.73;;;28.40;55.50;;;;;;4972671;28;20030;-88
2022/08/08 09:42:14;;;;;;;292.42;40.03;;;28.60;56.00;;;;;;4972462;28;20074;-86
2022/08/08 09:44:40;;;;;;;6.65;1.30;;;28.70;55.30;;;;;;4972358;28;20499;-87
2022/08/08 09:47:07;;;;;;;7.50;1.45;;;28.80;55.30;;;;;;4972088;28;20066;-84
2022/08/08 09:49:36;;;;;;;8.23;1.10;;;28.80;54.50;;;;;;4972096;28;20031;-86
2022/08/08 09:52:02;;;;;;;8.00;1.02;;;28.80;55.00;;;;;;4972485;28;20046;-84
2022/08/08 09:54:41;;;;;;;11.95;1.23;;;28.80;54.60;;;;;;4954623;28;20022;-85
2022/08/08 09:57:12;;;;;;;7.90;1.00;;;28.50;54.90;;;;;;4966100;28;20019;-85
2022/08/08 09:59:41;;;;;;;7.82;0.90;;;28.10;55.60;;;;;;4971948;28;20526;-84
2022/08/08 10:05:15;;;;;;;6.57;1.27;;;27.50;55.80;;;;;;4971767;28;20022;-88
2022/08/08 10:07:45;;;;;;;5.70;1.00;;;27.30;55.90;;;;;;4972102;28;20061;-88
2022/08/08 10:10:11;;;;;;;2.83;0.85;;;27.20;56.00;;;;;;4972263;28;20029;-86
2022/08/08 10:12:38;;;;;;;7.95;1.20;;;27.10;56.10;;;;;;4972114;28;20483;-84
2022/08/08 10:15:07;;;;;;;3.17;0.90;;;27.00;56.70;;;;;;4972356;28;20019;-85
2022/08/08 10:17:43;;;;;;;2.10;0.90;;;26.90;56.00;;;;;;4971939;28;20031;-84
2022/08/08 10:20:09;;;;;;;4.53;1.38;;;26.80;56.00;;;;;;4971844;28;20102;-84
2022/08/08 10:22:46;;;;;;;2.50;0.93;;;26.70;56.40;;;;;;4971717;28;20373;-84
2022/08/08 10:25:18;;;;;;;3.53;0.98;;;26.60;56.90;;;;;;4971956;28;20141;-84
2022/08/08 10:27:48;;;;;;;5.18;2.00;;;26.60;56.70;;;;;;4971507;28;20023;-84
2022/08/08 10:30:15;;;;;;;10.77;2.97;;;26.50;56.70;;;;;;4948797;28;20033;-84
2022/08/08 10:32:41;;;;;;;4.85;1.65;;;26.40;57.30;;;;;;4971551;28;20396;-83
2022/08/08 10:35:13;;;;;;;10.40;2.90;;;26.40;57.30;;;;;;4971377;28;20515;-84
2022/08/08 10:37:50;;;;;;;3.28;1.20;;;26.30;56.80;;;;;;4971470;28;20015;-84
2022/08/08 10:40:17;;;;;;;4.00;1.20;;;26.30;56.40;;;;;;4972035;28;20357;-84
2022/08/08 10:42:44;;;;;;;6.53;1.80;;;26.30;56.80;;;;;;4971528;28;20069;-84
2022/08/08 10:45:10;;;;;;;4.13;1.45;;;26.30;56.90;;;;;;4971225;28;20211;-84
2022/08/08 10:47:37;;;;;;;8.38;2.03;;;26.20;56.60;;;;;;4971186;28;20495;-84
2022/08/08 10:50:06;;;;;;;8.55;1.83;;;26.20;57.00;;;;;;4971003;28;20578;-84
2022/08/08 10:52:33;;;;;;;6.47;1.45;;;26.20;56.60;;;;;;4971262;28;20033;-83
2022/08/08 10:55:09;;;;;;;6.85;1.52;;;26.20;56.50;;;;;;4953820;28;20491;-83
2022/08/08 10:57:48;;;;;;;9.68;1.52;;;26.20;56.60;;;;;;4971315;28;20938;-84
2022/08/08 11:00:23;;;;;;;7.05;1.15;;;26.20;56.20;;;;;;4970975;28;20058;-83
2022/08/08 11:02:50;;;;;;;5.80;1.00;;;26.20;56.50;;;;;;4971334;28;20057;-84
2022/08/08 11:05:16;;;;;;;2.40;1.33;;;26.20;56.80;;;;;;4970935;28;20395;-83
2022/08/08 11:07:47;;;;;;;4.18;1.50;;;26.20;57.20;;;;;;4971099;28;20054;-83
2022/08/08 11:10:16;;;;;;;713.63;87.20;;;26.20;56.70;;;;;;4953639;28;20065;-83
2022/08/08 11:12:55;;;;;;;8.13;1.85;;;26.20;57.50;;;;;;4971040;28;20376;-84
2022/08/08 11:15:24;;;;;;;3.25;1.33;;;26.20;56.30;;;;;;4971025;28;20019;-84
2022/08/08 11:17:51;;;;;;;5.00;1.10;;;26.30;56.20;;;;;;4971075;28;20072;-82
2022/08/08 11:20:19;;;;;;;5.30;1.35;;;26.50;55.90;;;;;;4971327;28;20023;-84
2022/08/08 11:23:05;;;;;;;3.88;1.10;;;26.80;55.60;;;;;;4970860;28;20508;-84
2022/08/08 11:25:32;;;;;;;3.38;1.33;;;27.20;56.20;;;;;;4970247;28;20031;-86
2022/08/08 11:28:00;;;;;;;2.55;1.13;;;27.60;56.90;;;;;;4970736;28;20031;-84
2022/08/08 11:30:30;;;;;;;3.47;0.98;;;28.20;54.40;;;;;;4970634;28;20030;-84
2022/08/08 11:33:01;;;;;;;4.03;0.90;;;28.70;54.40;;;;;;4970983;28;20019;-83
2022/08/08 11:35:26;;;;;;;3.60;1.05;;;29.20;54.70;;;;;;4970831;28;20050;-89
2022/08/08 11:37:52;;;;;;;3.53;0.90;;;29.60;54.30;;;;;;4970763;28;20019;-90
2022/08/08 11:40:18;;;;;;;3.03;0.90;;;30.00;53.90;;;;;;4971069;28;20035;-85
2022/08/08 11:42:44;;;;;;;3.95;1.63;;;30.40;52.80;;;;;;4969816;28;20023;-90
2022/08/08 11:45:11;;;;;;;3.97;1.02;;;30.70;53.10;;;;;;4953302;28;20031;-88
2022/08/08 11:47:38;;;;;;;2.60;0.88;;;30.90;52.30;;;;;;4970496;28;20568;-89
2022/08/08 11:50:08;;;;;;;4.95;1.00;;;31.00;51.90;;;;;;4970487;28;20039;-89
2022/08/08 11:52:35;;;;;;;3.88;1.20;;;31.20;51.50;;;;;;4970533;28;20073;-88
2022/08/08 11:55:12;;;;;;;3.63;1.35;;;31.30;51.60;;;;;;4970604;28;20042;-88
2022/08/08 11:57:38;;;;;;;3.38;0.82;;;31.40;51.20;;;;;;4970643;28;20109;-88
2022/08/08 12:00:06;;;;;;;5.53;0.98;;;31.50;51.50;;;;;;4970726;28;20555;-89
2022/08/08 12:02:47;;;;;;;4.72;1.00;;;31.70;52.10;;;;;;4970721;28;20050;-88
2022/08/08 12:05:13;;;;;;;2.65;0.90;;;31.90;51.00;;;;;;4970337;28;20081;-88
2022/08/08 12:07:47;;;;;;;2.10;0.90;;;32.00;50.90;;;;;;4970490;28;20058;-88
2022/08/08 12:10:14;;;;;;;4.07;1.20;;;32.10;50.70;;;;;;4970429;28;20069;-89
2022/08/08 12:12:41;;;;;;;1.88;1.08;;;32.20;50.00;;;;;;4970464;28;20073;-87
2022/08/08 12:15:07;;;;;;;2.40;0.75;;;32.40;50.10;;;;;;4970473;28;20030;-89
2022/08/08 12:17:35;;;;;;;6.28;0.85;;;32.40;50.40;;;;;;4970924;28;20023;-90
2022/08/08 12:20:04;;;;;;;5.35;0.95;;;32.60;49.90;;;;;;4971640;28;20066;-91
2022/08/08 12:22:32;;;;;;;4.28;0.90;;;32.60;49.90;;;;;;4973475;28;20027;-93
2022/08/08 12:30:44;;;;;;;14.05;1.10;;;33.10;49.20;;;;;;5112102;23;20110;-93
2022/08/08 12:36:39;;;;;;;;;;;33.50;49.40;;;;;;5352588;23;20310;-90
2022/08/08 12:39:08;;;;;;;2.78;0.80;;;33.70;49.00;;;;;;4978622;28;19906;-91
2022/08/08 12:41:35;;;;;;;3.47;0.80;;;33.80;48.50;;;;;;4971970;28;20454;-91
2022/08/08 12:44:31;;;;;;;1.70;0.70;;;33.80;48.20;;;;;;4974151;28;20050;-92
2022/08/08 12:49:40;;;;;;;3.17;0.90;;;34.10;49.10;;;;;;4998453;23;20062;-93
2022/08/08 12:52:19;;;;;;;2.27;0.80;;;34.40;49.30;;;;;;4954956;28;20135;-90
2022/08/08 12:55:09;;;;;;;2.88;0.93;;;34.60;48.00;;;;;;4949661;28;20263;-95
2022/08/08 12:57:38;;;;;;;3.75;0.82;;;34.70;47.80;;;;;;4955128;29;20023;-92
2022/08/08 13:00:09;;;;;;;5.43;0.70;;;34.70;47.70;;;;;;4958097;29;20058;-93
2022/08/08 13:02:40;;;;;;;1.33;0.80;;;34.70;47.90;;;;;;4971123;28;20460;-91
2022/08/08 13:05:18;;;;;;;3.05;0.60;;;34.80;48.20;;;;;;4940889;28;20035;-91
2022/08/08 13:07:44;;;;;;;3.05;0.93;;;34.90;48.00;;;;;;4939977;29;20496;-87
2022/08/08 13:10:27;;;;;;;;;;;;;;;;;;;;;
2022/08/08 13:13:01;;;;;;;5.30;0.90;;;35.20;48.00;;;;;;4950257;29;20023;-93
2022/08/08 13:15:28;;;;;;;2.40;0.80;;;35.30;47.30;;;;;;4953727;28;20023;-86
2022/08/08 13:17:55;;;;;;;5.38;0.70;;;35.40;47.20;;;;;;4953654;29;20106;-92
2022/08/08 13:20:22;;;;;;;3.97;0.73;;;35.60;46.50;;;;;;4954692;29;20037;-89
2022/08/08 13:22:51;;;;;;;4.05;0.60;;;35.50;46.70;;;;;;4953970;28;20031;-96
2022/08/08 13:25:19;;;;;;;1.77;0.65;;;35.40;46.90;;;;;;4956294;29;20031;-88
2022/08/08 13:27:54;;;;;;;3.45;0.70;;;35.70;46.60;;;;;;4956320;28;20027;-88
2022/08/08 13:30:27;;;;;;;2.40;0.70;;;36.00;45.90;;;;;;4955801;28;20035;-95
2022/08/08 13:32:57;;;;;;;6.53;0.70;;;36.20;46.30;;;;;;4939246;29;20063;-89
2022/08/08 13:35:27;;;;;;;6.65;0.80;;;36.50;46.00;;;;;;4953589;28;20110;-86
2022/08/08 13:37:59;;;;;;;2.45;0.90;;;36.80;46.40;;;;;;4952279;28;20032;-86